Time;durP1;ratioP1;P1;durP2;ratioP2;P2;SDS_P1;SDS_P2;PMS_P1;PMS_P2;Temp;Humidity;BMP_temperature;BMP_pressure;BME280_temperature;BME280_humidity;BME280_pressure;Samples;Min_cycle;Max_cycle;Signal;HPM_P1;HPM_P2
2021/04/21 00:00:53;;;;;;;34.22;17.27;;;;;;;10.36;68.36;100777.41;4967895;28;20051;-83
2021/04/21 00:03:40;;;;;;;28.27;17.08;;;;;;;10.51;67.58;100784.34;4953068;29;20431;-83
2021/04/21 00:06:25;;;;;;;26.35;16.20;;;;;;;10.56;67.53;100784.22;4948387;29;20043;-82
2021/04/21 00:09:16;;;;;;;28.85;17.52;;;;;;;10.67;66.85;100778.16;4951289;29;20046;-83
2021/04/21 00:12:02;;;;;;;29.45;17.92;;;;;;;10.75;66.45;100779.34;4952240;28;20039;-82
2021/04/21 00:14:50;;;;;;;26.52;16.33;;;;;;;10.72;66.21;100777.22;4946737;28;20047;-82
2021/04/21 00:17:38;;;;;;;31.80;18.67;;;;;;;10.69;65.87;100791.47;4949823;29;20043;-83
2021/04/21 00:20:24;;;;;;;35.45;18.85;;;;;;;10.69;65.94;100780.59;4961976;28;20048;-80
2021/04/21 00:23:12;;;;;;;31.58;18.10;;;;;;;10.72;65.99;100786.19;4974196;28;20039;-83
2021/04/21 00:25:58;;;;;;;29.35;15.82;;;;;;;10.63;66.41;100781.84;4963155;28;20495;-82
2021/04/21 00:28:43;;;;;;;33.78;18.77;;;;;;;10.41;66.71;100780.00;4944325;29;20035;-82
2021/04/21 00:31:28;;;;;;;33.88;19.15;;;;;;;10.31;66.77;100774.78;4948727;29;20035;-83
2021/04/21 00:34:17;;;;;;;30.42;18.17;;;;;;;10.24;66.92;100777.97;4950530;28;20043;-83
2021/04/21 00:37:05;;;;;;;26.05;17.13;;;;;;;10.33;67.00;100774.50;4949948;29;20039;-83
2021/04/21 00:39:49;;;;;;;29.48;18.40;;;;;;;10.04;67.78;100777.66;4947747;29;20051;-83
2021/04/21 00:42:52;;;;;;;23.00;13.43;;;;;;;9.92;68.14;100777.41;4964729;28;20035;-81
2021/04/21 00:45:44;;;;;;;33.42;17.80;;;;;;;9.70;68.78;100779.00;4945891;29;20051;-83
2021/04/21 00:49:08;;;;;;;26.50;15.65;;;;;;;10.14;68.30;100772.78;4950924;28;20048;-82
2021/04/21 00:51:57;;;;;;;28.33;17.08;;;;;;;10.35;67.65;100773.09;4923224;29;20035;-83
2021/04/21 00:55:03;;;;;;;34.38;18.77;;;;;;;10.15;67.16;100770.88;4975209;28;20047;-82
2021/04/21 00:57:58;;;;;;;33.00;16.40;;;;;;;10.18;67.61;100778.41;4932259;29;20035;-83
2021/04/21 01:00:46;;;;;;;32.28;19.50;;;;;;;10.29;67.24;100769.69;4975524;28;20035;-80
2021/04/21 01:03:33;;;;;;;30.42;15.95;;;;;;;10.55;66.82;100772.53;4965928;28;20504;-82
2021/04/21 01:06:29;;;;;;;37.20;17.98;;;;;;;10.33;66.38;100760.91;4961117;28;20047;-81
2021/04/21 01:09:16;;;;;;;;;;;;;;;10.15;67.45;100766.22;4960190;29;20047;-81
2021/04/21 01:12:07;;;;;;;27.35;16.58;;;;;;;10.34;66.87;100765.22;4949705;28;19915;-83
2021/04/21 01:14:58;;;;;;;31.25;16.73;;;;;;;10.43;67.11;100768.78;4947642;29;20047;-81
2021/04/21 01:17:47;;;;;;;29.67;16.67;;;;;;;10.62;66.75;100769.34;4946287;28;20040;-82
2021/04/21 01:20:45;;;;;;;29.15;17.48;;;;;;;10.41;66.12;100768.31;4964976;28;20043;-82
2021/04/21 01:23:49;;;;;;;28.40;17.42;;;;;;;10.15;66.65;100768.94;4952893;28;20043;-83
2021/04/21 01:27:09;;;;;;;26.92;15.75;;;;;;;10.20;67.25;100776.19;4960202;28;20047;-83
2021/04/21 01:29:55;;;;;;;27.75;17.58;;;;;;;9.87;67.16;100781.06;4926886;29;20036;-82
2021/04/21 01:32:44;;;;;;;31.92;18.27;;;;;;;9.66;69.08;100779.94;4950405;28;20123;-81
2021/04/21 01:35:30;;;;;;;30.23;17.30;;;;;;;9.50;69.57;100774.03;4949425;29;20050;-82
2021/04/21 01:38:17;;;;;;;27.40;17.77;;;;;;;9.18;70.63;100780.47;4945897;29;20119;-81
2021/04/21 01:41:06;;;;;;;28.48;18.42;;;;;;;9.40;69.96;100776.97;4964508;28;20047;-82
2021/04/21 01:44:12;;;;;;;30.42;18.95;;;;;;;9.47;69.93;100776.56;4947973;29;20062;-80
2021/04/21 01:47:04;;;;;;;36.63;19.45;;;;;;;9.47;70.22;100771.16;4946622;29;20067;-83
2021/04/21 01:50:12;;;;;;;30.50;16.77;;;;;;;9.82;70.27;100776.53;4961981;29;20050;-83
2021/04/21 01:53:19;;;;;;;29.48;18.13;;;;;;;9.81;69.36;100780.38;4952171;29;20039;-81
2021/04/21 01:56:32;;;;;;;36.28;18.58;;;;;;;9.85;68.98;100786.00;4948213;29;20050;-81
2021/04/21 01:59:54;;;;;;;33.13;19.02;;;;;;;9.55;70.59;100778.56;4959686;29;20419;-82
2021/04/21 02:03:03;;;;;;;39.28;19.05;;;;;;;9.62;70.49;100785.19;4944163;28;20637;-83
2021/04/21 02:05:57;;;;;;;38.30;21.33;;;;;;;9.83;71.78;100782.78;4948682;29;20036;-82
2021/04/21 02:09:14;;;;;;;37.40;22.00;;;;;;;9.92;71.20;100785.56;4945567;29;20051;-82
2021/04/21 02:12:28;;;;;;;33.70;15.80;;;;;;;9.76;70.82;100793.25;4950714;29;20043;-81
2021/04/21 02:15:22;;;;;;;40.38;22.38;;;;;;;9.79;71.42;100788.03;4947239;29;20047;-81
2021/04/21 02:18:19;;;;;;;33.50;20.60;;;;;;;9.94;70.95;100792.28;4955472;28;20035;-80
2021/04/21 02:21:22;;;;;;;38.60;21.13;;;;;;;10.01;70.45;100797.28;4950276;28;20066;-81
2021/04/21 02:24:41;;;;;;;35.38;20.08;;;;;;;9.77;70.99;100797.59;4959180;28;20035;-83
2021/04/21 02:27:40;;;;;;;38.55;22.98;;;;;;;9.68;71.82;100802.97;4960886;29;20046;-81
2021/04/21 02:30:45;;;;;;;46.72;23.08;;;;;;;9.51;72.32;100802.00;4958559;29;20044;-83
2021/04/21 02:33:52;;;;;;;36.58;21.50;;;;;;;9.71;72.03;100796.09;4962336;28;20046;-81
2021/04/21 02:36:44;;;;;;;34.42;21.67;;;;;;;9.53;71.45;100795.16;4945409;29;20050;-82
2021/04/21 02:39:41;;;;;;;33.58;20.75;;;;;;;9.37;70.21;100788.47;4951618;29;20058;-82
2021/04/21 02:42:37;;;;;;;30.60;19.27;;;;;;;8.98;71.67;100797.97;4951652;28;20081;-82
2021/04/21 02:45:45;;;;;;;35.75;19.00;;;;;;;8.94;72.30;100799.66;4965025;28;20051;-82
2021/04/21 02:48:47;;;;;;;37.17;20.58;;;;;;;8.84;72.46;100801.78;4960101;29;20051;-81
2021/04/21 02:52:09;;;;;;;41.72;21.58;;;;;;;9.01;71.53;100796.56;4967156;28;20043;-82
2021/04/21 02:55:03;;;;;;;38.60;20.27;;;;;;;8.90;73.43;100800.56;4963293;28;20046;-83
2021/04/21 02:58:11;;;;;;;35.58;20.83;;;;;;;9.02;72.37;100798.16;4951143;28;20527;-82
2021/04/21 03:01:04;;;;;;;35.30;20.75;;;;;;;8.95;72.19;100797.75;4949692;28;20047;-82
2021/04/21 03:03:59;;;;;;;38.25;21.33;;;;;;;8.79;73.19;100794.53;4948552;29;20050;-82
2021/04/21 03:06:49;;;;;;;38.67;21.80;;;;;;;8.85;72.46;100792.53;4948550;29;20039;-83
2021/04/21 03:09:52;;;;;;;34.53;21.45;;;;;;;8.86;72.66;100788.72;4947623;29;20058;-84
2021/04/21 03:12:45;;;;;;;39.10;22.55;;;;;;;8.89;72.48;100791.63;4951545;28;20039;-83
2021/04/21 03:15:33;;;;;;;37.40;21.17;;;;;;;8.90;72.25;100779.69;4948559;29;20050;-83
2021/04/21 03:18:21;;;;;;;38.55;22.40;;;;;;;8.72;73.31;100780.59;4961210;28;20487;-83
2021/04/21 03:21:11;;;;;;;45.20;24.80;;;;;;;8.78;73.75;100773.16;4950620;28;20043;-82
2021/04/21 03:24:02;;;;;;;43.08;24.15;;;;;;;9.02;72.92;100777.28;4949707;28;20046;-82
2021/04/21 03:26:50;;;;;;;42.53;23.73;;;;;;;9.15;72.57;100783.78;4951051;29;20040;-82
2021/04/21 03:29:42;;;;;;;50.38;27.10;;;;;;;9.11;72.67;100779.25;4951456;29;20046;-82
2021/04/21 03:32:31;;;;;;;41.85;23.42;;;;;;;9.22;72.40;100778.75;4949675;28;20043;-82
2021/04/21 03:35:18;;;;;;;41.42;22.70;;;;;;;9.03;71.89;100780.78;4986187;28;20038;-80
2021/04/21 03:38:10;;;;;;;42.10;22.77;;;;;;;8.60;72.59;100772.16;4953373;29;20050;-84
2021/04/21 03:40:55;;;;;;;38.42;21.38;;;;;;;8.57;73.20;100783.59;4948433;28;20051;-83
2021/04/21 03:43:43;;;;;;;36.53;22.75;;;;;;;8.38;73.84;100778.25;4954217;28;20055;-83
2021/04/21 03:46:28;;;;;;;36.42;21.70;;;;;;;8.55;73.58;100769.53;4945962;29;20039;-84
2021/04/21 03:49:14;;;;;;;39.25;22.60;;;;;;;8.46;73.79;100780.28;4949698;28;20052;-83
2021/04/21 03:52:00;;;;;;;40.53;23.75;;;;;;;8.33;72.99;100783.75;4954717;28;20062;-83
2021/04/21 03:54:46;;;;;;;39.45;22.00;;;;;;;8.37;73.58;100782.06;4951519;28;20063;-81
2021/04/21 03:57:36;;;;;;;36.85;20.23;;;;;;;8.40;73.96;100783.38;4950729;29;20043;-81
2021/04/21 04:00:21;;;;;;;39.03;22.38;;;;;;;8.51;73.03;100780.19;4964646;28;20054;-83
2021/04/21 04:03:20;;;;;;;40.10;22.50;;;;;;;8.64;72.63;100780.47;4953995;28;20084;-84
2021/04/21 04:06:08;;;;;;;53.20;24.08;;;;;;;8.48;73.37;100785.41;4947367;29;20042;-82
2021/04/21 04:08:56;;;;;;;38.75;23.40;;;;;;;8.58;73.68;100791.41;4949700;29;20042;-84
2021/04/21 04:11:47;;;;;;;41.47;23.48;;;;;;;8.30;74.81;100780.84;4951335;28;20121;-84
2021/04/21 04:14:34;;;;;;;41.15;21.55;;;;;;;8.34;74.60;100789.97;4950592;29;20230;-84
2021/04/21 04:17:22;;;;;;;41.25;22.92;;;;;;;8.12;74.83;100791.44;4950192;29;20048;-82
2021/04/21 04:20:11;;;;;;;41.97;21.05;;;;;;;8.28;74.82;100793.88;4949660;29;20051;-84
2021/04/21 04:23:04;;;;;;;38.65;23.45;;;;;;;8.26;74.72;100791.44;4961919;28;20050;-83
2021/04/21 04:25:51;;;;;;;42.47;23.40;;;;;;;8.25;75.04;100792.53;4949087;29;20046;-84
2021/04/21 04:28:37;;;;;;;40.90;24.25;;;;;;;8.38;75.07;100791.78;4948792;29;20047;-83
2021/04/21 04:31:22;;;;;;;39.45;23.33;;;;;;;8.45;74.87;100799.53;4956376;28;20732;-84
2021/04/21 04:34:09;;;;;;;45.38;23.38;;;;;;;8.73;73.56;100801.19;4954425;28;20066;-83
2021/04/21 04:36:55;;;;;;;41.90;24.13;;;;;;;8.63;73.38;100795.16;4943984;29;20048;-82
2021/04/21 04:39:42;;;;;;;41.78;22.48;;;;;;;8.61;74.39;100800.06;4952854;28;20054;-83
2021/04/21 04:42:28;;;;;;;45.80;24.90;;;;;;;8.50;73.93;100808.38;4953658;29;20047;-83
2021/04/21 04:45:13;;;;;;;39.22;17.58;;;;;;;8.61;73.87;100810.91;4950858;29;20046;-83
2021/04/21 04:48:03;;;;;;;40.97;23.48;;;;;;;8.76;74.57;100811.41;4961466;28;20054;-83
2021/04/21 04:50:50;;;;;;;42.08;23.60;;;;;;;8.91;73.66;100816.53;4969074;28;20043;-80
2021/04/21 04:53:36;;;;;;;45.92;25.05;;;;;;;9.09;73.37;100814.84;4951966;28;20045;-83
2021/04/21 04:56:22;;;;;;;40.30;24.30;;;;;;;9.04;73.52;100812.22;4937285;29;20056;-80
2021/04/21 04:59:09;;;;;;;54.35;26.25;;;;;;;9.10;73.62;100819.16;4944957;28;20042;-79
2021/04/21 05:02:00;;;;;;;52.33;25.50;;;;;;;8.98;73.36;100827.00;4939644;29;20048;-79
2021/04/21 05:05:00;;;;;;;45.15;23.75;;;;;;;9.08;73.47;100817.84;4968658;28;20042;-79
2021/04/21 05:08:03;;;;;;;42.22;25.15;;;;;;;9.30;71.90;100826.84;4941335;29;20417;-78
2021/04/21 05:13:45;;;;;;;43.28;24.92;;;;;;;9.48;71.65;100830.56;4979812;28;20030;-80
2021/04/21 05:17:15;;;;;;;44.72;23.63;;;;;;;9.45;71.64;100839.28;4966448;28;20050;-80
2021/04/21 05:20:22;;;;;;;39.45;23.50;;;;;;;9.69;71.02;100833.63;4933481;28;20042;-80
2021/04/21 05:23:17;;;;;;;46.22;23.52;;;;;;;9.88;70.34;100842.41;4965840;28;20054;-80
2021/04/21 05:26:24;;;;;;;45.30;25.50;;;;;;;9.91;70.29;100855.38;4979502;28;20046;-80
2021/04/21 05:29:28;;;;;;;45.13;24.65;;;;;;;10.28;69.84;100860.50;4966496;28;20528;-80
2021/04/21 05:32:28;;;;;;;48.85;26.35;;;;;;;10.57;68.86;100859.22;4961686;28;20034;-79
2021/04/21 05:35:35;;;;;;;44.60;26.27;;;;;;;10.51;69.15;100860.50;4974169;28;20038;-81
2021/04/21 05:38:37;;;;;;;;;;;;;;;10.81;68.53;100862.41;4991038;28;20433;-82
2021/04/21 05:41:41;;;;;;;47.70;24.95;;;;;;;10.73;69.32;100866.69;4983593;28;19922;-81
2021/04/21 05:44:54;;;;;;;49.33;25.17;;;;;;;10.98;68.52;100875.25;4971860;28;20501;-81
2021/04/21 05:48:19;;;;;;;40.92;23.98;;;;;;;11.35;66.89;100876.69;4979905;28;20042;-81
2021/04/21 05:51:36;;;;;;;43.60;25.55;;;;;;;11.50;67.00;100878.97;4980985;28;20039;-81
2021/04/21 05:54:44;;;;;;;40.28;23.70;;;;;;;11.87;65.88;100885.78;4962484;28;20047;-81
2021/04/21 05:57:29;;;;;;;40.03;23.58;;;;;;;12.04;65.58;100882.28;4980577;28;20043;-82
2021/04/21 06:00:48;;;;;;;39.22;22.45;;;;;;;12.30;65.32;100888.50;4965033;28;20433;-81
2021/04/21 06:03:35;;;;;;;38.30;22.05;;;;;;;12.38;65.06;100896.69;4989810;28;20038;-81
2021/04/21 06:06:22;;;;;;;51.90;24.35;;;;;;;12.36;64.47;100898.13;4970897;28;20409;-81
2021/04/21 06:09:09;;;;;;;41.38;22.88;;;;;;;12.42;64.02;100903.09;4973740;28;20478;-81
2021/04/21 06:12:07;;;;;;;35.63;22.52;;;;;;;12.61;63.66;100899.22;4965186;28;20050;-80
2021/04/21 06:14:52;;;;;;;37.25;22.73;;;;;;;12.85;62.55;100908.44;4970717;28;20440;-82
2021/04/21 06:17:37;;;;;;;;;;;;;;;12.97;63.66;100901.53;4973052;28;20409;-82
2021/04/21 06:20:48;;;;;;;33.50;20.30;;;;;;;13.53;64.03;100898.41;4992040;28;20389;-82
2021/04/21 06:23:33;;;;;;;33.88;21.88;;;;;;;13.86;63.76;100905.91;4977697;28;20039;-82
2021/04/21 06:26:21;;;;;;;27.52;18.23;;;;;;;13.99;64.51;100905.66;4981973;28;20042;-82
2021/04/21 06:29:08;;;;;;;36.80;22.13;;;;;;;14.10;63.98;100901.38;4978088;28;20400;-83
2021/04/21 06:31:53;;;;;;;36.08;21.58;;;;;;;14.20;63.85;100911.13;4982593;28;20042;-82
2021/04/21 06:34:38;;;;;;;39.03;19.92;;;;;;;14.29;63.46;100905.56;4976229;28;20422;-82
2021/04/21 06:37:23;;;;;;;36.40;22.13;;;;;;;14.36;63.75;100903.94;4970520;28;20043;-81
2021/04/21 06:40:08;;;;;;;37.38;21.02;;;;;;;14.58;62.09;100910.94;4962658;28;20043;-81
2021/04/21 06:42:58;;;;;;;37.22;19.83;;;;;;;15.04;63.76;100911.75;4971631;28;20042;-82
2021/04/21 06:45:51;;;;;;;36.75;18.65;;;;;;;15.51;64.20;100912.13;4989651;28;20034;-82
2021/04/21 06:48:37;;;;;;;35.97;21.38;;;;;;;15.88;61.95;100912.91;4992202;28;20038;-82
2021/04/21 06:51:25;;;;;;;41.92;23.85;;;;;;;15.96;60.13;100912.78;4972966;28;20039;-83
2021/04/21 06:54:10;;;;;;;37.97;22.15;;;;;;;16.16;59.05;100909.06;4969445;28;20046;-87
2021/04/21 06:56:55;;;;;;;28.30;17.38;;;;;;;15.80;53.88;100914.63;4974880;28;20042;-82
2021/04/21 06:59:40;;;;;;;34.20;21.55;;;;;;;15.71;54.30;100913.97;4972599;28;20413;-81
2021/04/21 07:02:43;;;;;;;27.40;16.80;;;;;;;16.69;51.27;100915.28;4971110;28;20038;-80
2021/04/21 07:05:35;;;;;;;31.30;19.58;;;;;;;17.17;49.17;100913.41;4975180;28;20038;-84
2021/04/21 07:08:29;;;;;;;31.73;18.48;;;;;;;17.54;47.09;100914.69;4984195;28;20039;-84
2021/04/21 07:11:14;;;;;;;173.70;25.98;;;;;;;17.80;47.64;100920.44;4992846;28;20043;-82
2021/04/21 07:14:00;;;;;;;24.98;14.32;;;;;;;18.58;44.66;100916.59;4976312;28;20030;-84
2021/04/21 07:16:45;;;;;;;28.40;18.45;;;;;;;18.70;43.69;100916.44;4974616;28;20038;-84
2021/04/21 07:19:31;;;;;;;30.15;16.45;;;;;;;19.50;42.28;100922.97;4992004;28;20035;-84
2021/04/21 07:22:16;;;;;;;14.90;10.20;;;;;;;18.97;40.72;100922.84;4977151;28;20433;-84
2021/04/21 07:25:01;;;;;;;28.35;11.82;;;;;;;19.42;40.33;100921.22;4989758;28;20034;-83
2021/04/21 07:27:51;;;;;;;18.08;11.88;;;;;;;19.04;40.70;100928.50;4992080;28;20035;-84
2021/04/21 07:30:37;;;;;;;23.92;13.38;;;;;;;19.33;40.17;100924.25;4977549;28;20038;-82
2021/04/21 07:33:43;;;;;;;22.77;13.23;;;;;;;20.30;38.24;100928.03;4986861;28;20038;-82
2021/04/21 07:36:28;;;;;;;23.17;14.07;;;;;;;19.95;39.03;100933.09;4974797;28;20035;-83
2021/04/21 07:39:14;;;;;;;;;;;;;;;20.52;37.96;100939.38;4987724;28;20405;-83
2021/04/21 07:41:59;;;;;;;21.92;11.98;;;;;;;20.84;38.42;100935.00;4971649;28;19925;-82
2021/04/21 07:44:52;;;;;;;23.13;14.77;;;;;;;21.58;35.41;100935.69;4974954;28;20038;-83
2021/04/21 07:47:38;;;;;;;27.50;14.73;;;;;;;21.89;35.33;100950.13;4973380;28;20034;-82
2021/04/21 07:50:27;;;;;;;27.23;16.08;;;;;;;22.20;34.76;100944.00;4955535;28;20042;-83
2021/04/21 07:53:14;;;;;;;25.00;14.95;;;;;;;21.39;35.87;100944.22;4973779;28;20035;-83
2021/04/21 07:56:06;;;;;;;22.33;15.43;;;;;;;22.92;33.62;100945.84;4988353;28;20038;-84
2021/04/21 07:58:52;;;;;;;25.02;15.63;;;;;;;22.83;32.63;100937.91;4970164;28;20042;-84
2021/04/21 08:01:37;;;;;;;22.05;15.13;;;;;;;24.03;30.51;100947.44;4975010;28;20489;-84
2021/04/21 08:04:25;;;;;;;33.45;16.60;;;;;;;24.06;31.19;100941.09;4973326;28;20042;-83
2021/04/21 08:07:10;;;;;;;26.83;17.55;;;;;;;23.65;31.55;100955.44;4970052;28;20047;-83
2021/04/21 08:09:55;;;;;;;;;;;;;;;24.35;30.44;100948.16;4976052;28;20050;-83
2021/04/21 08:12:40;;;;;;;30.90;17.25;;;;;;;25.22;29.11;100959.22;4971637;28;19914;-85
2021/04/21 08:15:29;;;;;;;;;;;;;;;25.36;28.68;100961.09;4971279;28;20042;-84
2021/04/21 08:18:14;;;;;;;25.98;16.42;;;;;;;24.57;29.63;100955.22;4975531;28;19922;-84
2021/04/21 08:21:00;;;;;;;24.40;15.65;;;;;;;25.23;28.46;100957.22;4989057;28;20039;-85
2021/04/21 08:23:45;;;;;;;27.20;17.15;;;;;;;26.16;27.65;100958.75;4984943;28;20043;-84
2021/04/21 08:26:32;;;;;;;31.73;20.15;;;;;;;24.88;29.70;100953.50;4977138;28;20034;-85
2021/04/21 08:29:17;;;;;;;32.20;18.65;;;;;;;25.17;29.45;100956.88;4974284;28;20042;-85
2021/04/21 08:32:02;;;;;;;27.58;17.88;;;;;;;24.37;30.72;100956.91;4971846;28;20034;-83
2021/04/21 08:34:50;;;;;;;25.73;16.40;;;;;;;24.34;29.09;100948.53;4976936;28;20042;-85
2021/04/21 08:37:35;;;;;;;25.42;16.08;;;;;;;24.27;28.86;100949.38;4976858;28;20051;-85
2021/04/21 08:40:24;;;;;;;26.77;16.50;;;;;;;23.41;30.93;100967.34;4966162;28;20042;-84
2021/04/21 08:43:09;;;;;;;23.50;17.13;;;;;;;25.39;28.62;100963.88;4978984;28;20046;-84
2021/04/21 08:45:55;;;;;;;27.15;15.77;;;;;;;26.68;25.88;100950.94;4964107;28;20046;-81
2021/04/21 08:48:42;;;;;;;24.70;16.67;;;;;;;28.34;23.31;100964.16;4980675;28;20038;-83
2021/04/21 08:51:29;;;;;;;23.15;15.95;;;;;;;28.77;21.87;100954.91;4972145;28;20039;-84
2021/04/21 08:54:15;;;;;;;26.60;16.17;;;;;;;27.80;22.43;100949.63;4971792;28;20050;-84
2021/04/21 08:57:01;;;;;;;22.40;16.10;;;;;;;27.99;23.45;100960.03;4985022;28;20497;-83
2021/04/21 08:59:47;;;;;;;22.40;15.80;;;;;;;26.95;24.28;100953.81;4973179;28;20038;-82
2021/04/21 09:02:33;;;;;;;25.90;13.27;;;;;;;28.00;29.84;100960.81;4968217;28;20043;-87
2021/04/21 09:05:19;;;;;;;23.88;15.93;;;;;;;29.29;23.03;100952.06;4957371;28;20034;-88
2021/04/21 09:08:06;;;;;;;29.70;13.88;;;;;;;30.99;23.26;100972.59;4967789;28;20038;-87
2021/04/21 09:10:51;;;;;;;52.17;14.55;;;;;;;31.70;20.72;100959.06;4972145;28;20034;-87
2021/04/21 09:13:36;;;;;;;20.73;14.73;;;;;;;30.54;18.68;100958.75;4986441;28;20030;-87
2021/04/21 09:16:21;;;;;;;26.58;13.75;;;;;;;27.99;22.02;100954.44;4989327;28;20050;-87
2021/04/21 09:19:11;;;;;;;20.38;12.80;;;;;;;30.37;21.61;100958.03;4944654;29;20051;-88
2021/04/21 09:22:04;;;;;;;20.60;12.68;;;;;;;31.82;18.45;100949.81;4942543;29;20498;-88
2021/04/21 09:24:58;;;;;;;21.95;13.85;;;;;;;28.04;21.10;100945.56;4958678;28;20413;-88
2021/04/21 09:27:43;;;;;;;20.73;14.85;;;;;;;27.12;22.60;100951.97;4977682;28;20051;-88
2021/04/21 09:30:29;;;;;;;21.40;15.00;;;;;;;25.11;25.22;100942.59;4975692;28;20043;-88
2021/04/21 09:33:13;;;;;;;18.67;13.65;;;;;;;26.01;25.35;100954.53;4966491;28;20035;-88
2021/04/21 09:35:59;;;;;;;24.15;13.27;;;;;;;27.23;23.21;100944.19;4979433;28;20043;-89
2021/04/21 09:38:44;;;;;;;17.20;11.75;;;;;;;28.68;22.33;100952.66;4960844;28;20224;-87
2021/04/21 09:41:29;;;;;;;17.77;13.40;;;;;;;29.65;19.45;100949.97;4980962;28;20050;-89
2021/04/21 09:44:27;;;;;;;21.95;13.48;;;;;;;30.27;18.64;100947.13;4952193;28;20047;-89
2021/04/21 09:47:13;;;;;;;15.65;11.27;;;;;;;31.80;17.36;100947.44;4943219;29;20043;-88
2021/04/21 09:49:59;;;;;;;16.63;12.65;;;;;;;28.80;19.31;100942.84;4947331;29;20047;-88
2021/04/21 09:52:44;;;;;;;17.92;11.50;;;;;;;29.64;20.11;100951.19;4945915;29;20043;-89
2021/04/21 09:55:29;;;;;;;18.23;11.13;;;;;;;31.03;19.46;100945.25;4959573;29;20043;-89
2021/04/21 09:58:33;;;;;;;22.88;11.68;;;;;;;32.00;17.43;100949.19;4948066;29;20051;-89
2021/04/21 10:01:24;;;;;;;16.45;11.45;;;;;;;32.50;16.91;100948.16;4957299;29;20049;-88
2021/04/21 10:04:21;;;;;;;16.17;10.57;;;;;;;33.18;16.69;100957.56;4960787;28;20039;-88
2021/04/21 10:07:07;;;;;;;24.80;12.70;;;;;;;32.05;15.84;100940.94;4943340;29;20043;-88
2021/04/21 10:10:02;;;;;;;21.23;11.75;;;;;;;31.31;17.61;100943.50;4946894;29;20043;-88
2021/04/21 10:12:48;;;;;;;19.52;12.02;;;;;;;30.41;18.16;100938.28;4942295;29;20035;-88
2021/04/21 10:15:33;;;;;;;29.40;13.32;;;;;;;31.07;16.83;100945.91;4956326;28;20043;-88
2021/04/21 10:18:19;;;;;;;17.55;12.80;;;;;;;29.66;17.86;100945.91;4940582;29;20490;-88
2021/04/21 10:21:05;;;;;;;17.88;12.70;;;;;;;30.15;17.55;100943.03;4944045;29;20043;-88
2021/04/21 10:23:51;;;;;;;19.33;12.25;;;;;;;32.41;16.02;100939.66;4942243;29;20047;-88
2021/04/21 10:26:37;;;;;;;20.45;10.95;;;;;;;33.63;16.19;100945.59;4940488;29;20509;-89
2021/04/21 10:29:24;;;;;;;15.05;10.70;;;;;;;34.92;14.96;100944.97;4959335;29;20047;-89
2021/04/21 10:32:11;;;;;;;15.07;9.52;;;;;;;34.33;14.77;100944.53;4957430;29;20047;-88
2021/04/21 10:34:56;;;;;;;16.73;10.77;;;;;;;30.37;17.74;100932.78;4953453;29;20039;-89
2021/04/21 10:37:41;;;;;;;15.05;11.63;;;;;;;28.51;20.49;100920.25;4947199;29;20418;-89
2021/04/21 10:40:30;;;;;;;14.77;10.57;;;;;;;29.27;18.39;100924.47;4960404;28;20502;-84
2021/04/21 10:43:39;;;;;;;16.30;11.27;;;;;;;30.68;16.78;100932.28;4941853;29;20422;-84
2021/04/21 10:46:24;;;;;;;15.55;12.02;;;;;;;33.06;15.21;100926.22;4953821;28;20076;-84
2021/04/21 10:49:34;;;;;;;21.02;11.05;;;;;;;32.45;14.78;100918.56;4962093;28;20042;-85
2021/04/21 10:52:27;;;;;;;20.95;11.57;;;;;;;27.92;19.62;100904.28;4965198;28;20039;-85
2021/04/21 10:55:37;;;;;;;19.95;12.00;;;;;;;29.65;18.52;100901.53;4976964;28;20046;-85
2021/04/21 10:58:22;;;;;;;23.30;12.48;;;;;;;31.38;16.48;100898.31;4966017;28;20047;-84
2021/04/21 11:01:36;;;;;;;16.23;11.10;;;;;;;31.97;15.57;100900.22;4965310;28;20038;-87
2021/04/21 11:05:02;;;;;;;16.67;11.57;;;;;;;33.66;14.68;100900.31;4964598;28;20051;-85
2021/04/21 11:08:03;;;;;;;16.77;12.30;;;;;;;32.60;15.31;100896.25;4981659;28;20051;-85
2021/04/21 11:10:52;;;;;;;19.10;12.48;;;;;;;33.12;14.66;100891.78;4981065;28;20039;-85
2021/04/21 11:13:42;;;;;;;18.73;12.60;;;;;;;32.80;15.29;100885.41;4990170;23;20047;-82
2021/04/21 11:16:38;;;;;;;17.00;11.57;;;;;;;33.13;15.09;100891.28;4986200;28;20042;-85
2021/04/21 11:19:25;;;;;;;15.50;12.05;;;;;;;33.39;14.13;100889.00;4976178;28;20043;-82
2021/04/21 11:22:18;;;;;;;17.40;13.43;;;;;;;34.17;14.37;100891.19;4957487;28;20451;-82
2021/04/21 11:25:20;;;;;;;19.35;14.02;;;;;;;32.05;16.21;100883.88;4971400;28;20040;-82
2021/04/21 11:28:05;;;;;;;18.13;13.73;;;;;;;31.26;17.57;100873.81;4963714;29;20039;-83
2021/04/21 11:30:53;;;;;;;18.92;14.88;;;;;;;35.63;13.26;100879.19;4961901;28;20035;-83
2021/04/21 11:33:55;;;;;;;23.65;15.25;;;;;;;35.58;14.20;100878.59;4989862;28;20050;-84
2021/04/21 11:36:49;;;;;;;17.45;13.77;;;;;;;33.31;15.07;100865.97;4972808;28;20042;-84
2021/04/21 11:39:50;;;;;;;18.83;13.95;;;;;;;32.33;15.53;100882.03;4975805;28;20038;-83
2021/04/21 11:42:45;;;;;;;21.05;13.85;;;;;;;32.50;15.58;100874.94;4972976;28;20043;-84
2021/04/21 11:45:31;;;;;;;19.13;13.95;;;;;;;32.56;15.81;100870.28;4976403;28;20050;-84
2021/04/21 11:48:19;;;;;;;23.60;16.30;;;;;;;32.87;15.28;100876.66;4977291;28;20295;-84
2021/04/21 11:51:17;;;;;;;21.80;15.32;;;;;;;32.53;15.88;100877.59;4988410;28;20042;-85
2021/04/21 11:54:03;;;;;;;22.10;14.93;;;;;;;32.89;15.20;100873.38;4964468;28;20031;-85
2021/04/21 11:56:48;;;;;;;24.23;15.07;;;;;;;32.04;16.25;100871.06;4965273;28;20042;-84
2021/04/21 11:59:34;;;;;;;25.20;14.30;;;;;;;32.11;15.69;100871.59;4966770;28;20039;-85
2021/04/21 12:02:19;;;;;;;20.25;13.00;;;;;;;32.42;14.98;100873.63;4972250;28;20051;-84
2021/04/21 12:05:05;;;;;;;16.52;13.15;;;;;;;33.40;13.58;100874.44;4970472;28;20035;-84
2021/04/21 12:07:50;;;;;;;22.02;14.45;;;;;;;33.96;14.21;100873.19;4968518;28;20035;-85
2021/04/21 12:10:37;;;;;;;18.50;13.70;;;;;;;36.48;12.23;100869.69;4972413;28;20039;-84
2021/04/21 12:13:32;;;;;;;20.95;13.30;;;;;;;33.57;14.06;100860.03;4979571;28;20039;-85
2021/04/21 12:16:25;;;;;;;22.10;15.20;;;;;;;33.51;14.72;100868.34;4990987;28;20034;-86
2021/04/21 12:19:11;;;;;;;20.45;14.52;;;;;;;33.25;14.53;100865.03;4980476;28;20035;-86
2021/04/21 12:21:56;;;;;;;23.73;13.45;;;;;;;32.35;16.12;100854.22;4993160;28;20462;-85
2021/04/21 12:24:41;;;;;;;18.42;15.68;;;;;;;31.10;17.28;100855.09;4982995;28;20047;-87
2021/04/21 12:27:30;;;;;;;18.30;13.98;;;;;;;30.53;17.46;100845.66;4995816;28;20043;-85
2021/04/21 12:30:18;;;;;;;21.85;14.73;;;;;;;31.94;15.51;100850.50;4978885;28;20046;-87
2021/04/21 12:33:08;;;;;;;18.38;12.65;;;;;;;30.08;17.35;100848.63;4987138;28;20035;-86
2021/04/21 12:35:56;;;;;;;19.67;14.52;;;;;;;29.79;17.84;100847.84;4979698;28;20042;-87
2021/04/21 12:38:42;;;;;;;16.38;12.63;;;;;;;29.32;17.88;100841.94;4978154;28;20043;-87
2021/04/21 12:41:28;;;;;;;18.48;12.35;;;;;;;32.53;15.03;100840.19;4981713;28;20047;-86
2021/04/21 12:44:18;;;;;;;20.30;14.15;;;;;;;31.13;16.38;100839.34;4979867;28;20050;-87
2021/04/21 12:47:12;;;;;;;17.52;10.82;;;;;;;29.54;17.02;100834.53;4979045;28;20039;-88
2021/04/21 12:50:07;;;;;;;12.88;10.43;;;;;;;28.74;17.63;100830.59;4995982;28;20035;-86
2021/04/21 12:52:52;;;;;;;20.38;11.38;;;;;;;29.47;17.14;100826.31;4978959;28;20050;-87
2021/04/21 12:55:37;;;;;;;13.40;10.63;;;;;;;28.70;17.59;100827.03;4974760;28;20023;-87
2021/04/21 12:58:37;;;;;;;15.52;9.30;;;;;;;30.12;15.45;100829.66;4981173;28;20046;-86
2021/04/21 13:01:23;;;;;;;13.80;8.40;;;;;;;31.66;13.55;100821.41;4993119;28;20119;-87
2021/04/21 13:04:11;;;;;;;13.48;8.82;;;;;;;33.31;13.02;100834.19;4976337;28;20047;-87
2021/04/21 13:06:56;;;;;;;19.00;10.18;;;;;;;32.64;12.83;100827.28;4994843;28;20049;-87
2021/04/21 13:09:44;;;;;;;11.93;9.05;;;;;;;31.53;13.89;100820.66;4978824;28;20042;-87